Time;durP1;ratioP1;P1;durP2;ratioP2;P2;SDS_P1;SDS_P2;PMS_P1;PMS_P2;Temp;Humidity;BMP_temperature;BMP_pressure;BME280_temperature;BME280_humidity;BME280_pressure;Samples;Min_cycle;Max_cycle;Signal;HPM_P1;HPM_P2
2022/05/31 00:02:56;;;;;;;5.03;4.20;;;;;;;9.86;77.14;100184.02;2759834;84;21131;-87
2022/05/31 00:06:57;;;;;;;5.03;4.53;;;;;;;9.69;76.93;100186.68;2822892;82;21022;-88
2022/05/31 00:11:00;;;;;;;6.03;5.17;;;;;;;9.49;77.74;100189.61;2775641;83;21581;-87
2022/05/31 00:15:03;;;;;;;7.33;4.70;;;;;;;9.46;77.56;100193.84;2822763;83;21074;-88
2022/05/31 00:19:05;;;;;;;7.00;5.37;;;;;;;9.43;77.42;100192.73;2822611;83;21085;-86
2022/05/31 00:23:08;;;;;;;5.60;4.33;;;;;;;9.38;77.85;100201.08;2822605;83;21054;-88
2022/05/31 00:27:13;;;;;;;5.35;4.25;;;;;;;9.32;78.14;100203.36;2788944;84;21094;-87
2022/05/31 00:31:14;;;;;;;6.80;5.70;;;;;;;9.27;78.26;100211.20;2813428;83;21117;-87
2022/05/31 00:35:20;;;;;;;4.97;3.80;;;;;;;9.18;78.48;100208.42;2789017;84;21071;-87
2022/05/31 00:39:22;;;;;;;5.65;3.65;;;;;;;9.14;77.93;100203.36;2812806;83;21436;-89
2022/05/31 00:43:25;;;;;;;4.83;3.98;;;;;;;9.16;78.16;100209.85;2813829;83;21074;-88
2022/05/31 00:47:30;;;;;;;7.05;5.35;;;;;;;9.10;78.59;100206.36;2783863;84;21070;-87
2022/05/31 00:51:37;;;;;;;6.90;4.67;;;;;;;9.07;78.16;100206.59;2813414;83;22248;-88
2022/05/31 00:55:47;;;;;;;8.53;3.92;;;;;;;9.06;78.53;100211.55;2813378;83;21515;-88
2022/05/31 00:59:53;;;;;;;5.78;4.72;;;;;;;9.09;78.48;100215.28;2813449;83;21050;-87
2022/05/31 01:03:56;;;;;;;5.75;3.87;;;;;;;9.07;78.69;100218.04;2810628;83;21090;-87
2022/05/31 01:07:57;;;;;;;6.22;4.67;;;;;;;9.07;78.61;100219.37;2821039;83;21034;-88
2022/05/31 01:12:00;;;;;;;7.08;3.70;;;;;;;9.09;78.45;100224.57;2812585;83;21134;-87
2022/05/31 01:16:04;;;;;;;5.97;4.35;;;;;;;9.11;78.19;100229.27;2812394;83;22221;-88
2022/05/31 01:20:08;;;;;;;9.30;5.28;;;;;;;9.08;78.00;100224.20;2787107;83;21550;-88
2022/05/31 01:24:13;;;;;;;5.03;4.30;;;;;;;9.05;78.48;100220.47;2770010;82;21073;-87
2022/05/31 01:28:50;;;;;;;7.53;5.13;;;;;;;9.06;78.30;100215.02;2822125;82;21015;-88
2022/05/31 01:33:05;;;;;;;7.87;7.00;;;;;;;9.04;78.14;100205.48;2796317;84;21054;-88
2022/05/31 01:37:07;;;;;;;6.40;5.70;;;;;;;8.88;79.33;100205.81;2824597;82;21596;-88
2022/05/31 01:41:29;;;;;;;8.35;6.28;;;;;;;8.58;79.72;100217.30;2842666;82;21108;-89
2022/05/31 01:45:55;;;;;;;6.08;4.87;;;;;;;8.55;80.23;100225.48;2812830;82;21041;-87
2022/05/31 01:49:57;;;;;;;5.83;5.33;;;;;;;8.60;80.12;100223.33;2841521;82;21062;-88
2022/05/31 01:53:59;;;;;;;9.03;6.22;;;;;;;8.65;80.00;100220.34;2820360;83;21022;-87
2022/05/31 01:58:05;;;;;;;6.70;4.90;;;;;;;8.67;79.90;100225.91;2842661;82;21439;-88
2022/05/31 02:02:06;;;;;;;4.60;4.20;;;;;;;8.66;78.89;100224.68;2843213;82;21033;-88
2022/05/31 02:06:34;;;;;;;4.47;4.08;;;;;;;8.56;79.65;100223.20;2842689;82;21065;-87
2022/05/31 02:10:35;;;;;;;5.33;4.72;;;;;;;8.48;79.87;100231.69;2790309;83;21081;-87
2022/05/31 02:14:36;;;;;;;8.25;5.42;;;;;;;8.42;79.40;100233.47;2790295;83;21132;-89
2022/05/31 02:22:57;;;;;;;5.45;4.67;;;;;;;8.31;78.35;100230.29;2792685;83;21723;-89
2022/05/31 02:26:59;;;;;;;6.28;4.92;;;;;;;8.19;79.17;100230.71;2786142;83;21726;-87
2022/05/31 02:31:00;;;;;;;4.28;3.87;;;;;;;8.17;78.64;100237.93;2790220;83;21175;-87
2022/05/31 02:35:03;;;;;;;5.83;4.65;;;;;;;8.10;78.07;100238.84;2771199;83;21550;-87
2022/05/31 02:39:06;;;;;;;7.78;4.65;;;;;;;8.02;77.41;100240.36;2787274;84;21497;-88
2022/05/31 02:43:09;;;;;;;6.10;4.42;;;;;;;7.89;76.96;100243.87;2799687;82;21038;-88
2022/05/31 02:47:10;;;;;;;5.05;4.05;;;;;;;7.72;77.64;100249.88;2830190;82;21074;-88
2022/05/31 02:51:11;;;;;;;10.10;4.65;;;;;;;7.66;78.97;100249.00;2838831;82;21080;-88
2022/05/31 02:55:13;;;;;;;55.30;8.85;;;;;;;7.46;80.84;100247.73;2811440;82;21017;-88
2022/05/31 02:59:15;;;;;;;16.02;5.60;;;;;;;7.41;81.23;100255.16;2818652;82;21110;-88
2022/05/31 03:03:16;;;;;;;9.83;5.67;;;;;;;7.51;81.72;100256.69;2792312;84;21085;-88
2022/05/31 03:07:17;;;;;;;12.45;6.10;;;;;;;7.65;81.18;100257.04;2834839;82;21074;-89
2022/05/31 03:11:30;;;;;;;5.58;5.08;;;;;;;7.77;81.19;100258.83;2807819;83;21069;-89
2022/05/31 03:15:34;;;;;;;5.75;5.25;;;;;;;7.92;81.20;100254.24;2791843;83;21057;-87
2022/05/31 03:19:41;;;;;;;10.48;5.33;;;;;;;8.08;80.62;100250.50;2788580;83;21065;-86
2022/05/31 03:23:46;;;;;;;6.33;4.30;;;;;;;8.18;79.95;100250.22;2806821;82;21045;-87
2022/05/31 03:27:49;;;;;;;7.67;5.35;;;;;;;8.19;77.65;100251.91;2839827;82;21033;-86
2022/05/31 03:31:50;;;;;;;9.18;4.60;;;;;;;8.15;77.77;100256.58;2839751;82;21541;-86
2022/05/31 03:35:51;;;;;;;9.78;4.30;;;;;;;8.22;77.50;100262.28;2814997;82;21057;-86
2022/05/31 03:39:52;;;;;;;11.80;5.58;;;;;;;8.06;78.53;100269.17;2817441;82;21060;-86
2022/05/31 03:43:53;;;;;;;11.60;5.53;;;;;;;8.06;78.53;100269.17;2834879;82;21069;-84
2022/05/31 03:47:55;;;;;;;6.05;4.25;;;;;;;8.13;79.65;100273.06;2837348;82;21037;-85
2022/05/31 03:51:57;;;;;;;3.90;3.50;;;;;;;8.35;80.02;100282.11;2841867;83;20998;-85
2022/05/31 03:56:02;;;;;;;5.85;4.97;;;;;;;8.53;80.01;100274.63;2837152;82;21092;-86
2022/05/31 04:00:05;;;;;;;8.40;5.40;;;;;;;8.61;80.53;100273.24;2839513;82;22259;-88
2022/05/31 04:04:05;;;;;;;14.70;6.30;;;;;;;8.73;81.33;100280.77;2839359;82;21033;-88
2022/05/31 04:08:11;;;;;;;5.45;4.42;;;;;;;8.80;82.56;100284.64;2768784;83;21132;-88
2022/05/31 04:12:12;;;;;;;14.67;6.53;;;;;;;9.00;83.95;100289.30;2790143;83;21022;-86
2022/05/31 04:16:17;;;;;;;11.00;7.00;;;;;;;9.49;84.34;100292.30;2789902;83;21081;-90
2022/05/31 04:20:18;;;;;;;10.75;6.50;;;;;;;10.24;85.89;100278.05;2840780;82;21057;-88
2022/05/31 04:24:22;;;;;;;23.73;8.25;;;;;;;11.56;87.18;100280.50;2842375;82;21088;-89
2022/05/31 04:28:22;;;;;;;14.47;7.05;;;;;;;12.95;89.36;100286.02;2815604;83;21085;-88
2022/05/31 04:32:24;;;;;;;10.23;5.50;;;;;;;14.39;86.56;100277.47;2793894;83;21108;-89
2022/05/31 04:36:25;;;;;;;15.45;6.92;;;;;;;15.80;78.22;100286.61;2842948;82;21046;-87
2022/05/31 04:40:26;;;;;;;5.08;4.58;;;;;;;16.63;70.66;100283.73;2779003;83;21046;-89
2022/05/31 04:44:27;;;;;;;5.90;4.53;;;;;;;17.20;66.51;100287.47;2841357;82;21093;-89
2022/05/31 04:48:28;;;;;;;5.50;4.78;;;;;;;17.62;62.60;100291.44;2843625;82;21062;-88
2022/05/31 04:52:29;;;;;;;5.67;5.05;;;;;;;17.89;61.69;100290.17;2755085;83;21693;-89
2022/05/31 04:56:32;;;;;;;7.30;4.80;;;;;;;18.04;60.35;100290.83;2844702;82;21033;-89
2022/05/31 05:00:33;;;;;;;7.45;3.67;;;;;;;17.85;60.39;100293.71;2845466;82;21002;-87
2022/05/31 05:04:34;;;;;;;3.12;2.92;;;;;;;17.74;60.66;100293.25;2873875;82;21059;-88
2022/05/31 05:08:36;;;;;;;6.80;3.25;;;;;;;17.97;58.11;100284.75;2850680;82;21135;-88
2022/05/31 05:12:38;;;;;;;3.20;2.90;;;;;;;18.13;59.60;100277.16;2819057;83;21057;-88
2022/05/31 05:16:39;;;;;;;4.78;3.12;;;;;;;18.33;57.96;100284.80;2845044;82;21110;-88
2022/05/31 05:20:41;;;;;;;3.75;3.45;;;;;;;18.23;58.45;100291.75;2845087;82;21412;-88
2022/05/31 05:24:42;;;;;;;4.83;2.90;;;;;;;18.18;58.93;100285.20;2786008;83;21612;-88
2022/05/31 05:33:02;;;;;;;4.92;4.08;;;;;;;18.50;59.05;100275.28;2809294;82;20999;-88
2022/05/31 05:37:03;;;;;;;3.55;3.25;;;;;;;18.65;58.20;100280.20;2807620;84;21029;-88
2022/05/31 05:41:05;;;;;;;7.37;4.35;;;;;;;18.60;58.88;100283.95;2721570;85;21014;-88
2022/05/31 05:45:07;;;;;;;5.65;3.25;;;;;;;18.46;59.25;100286.05;2818331;84;20989;-88
2022/05/31 05:49:09;;;;;;;2.92;2.70;;;;;;;18.35;60.02;100286.80;2772440;85;21049;-88
2022/05/31 05:53:11;;;;;;;3.58;3.25;;;;;;;18.27;61.00;100294.91;2815817;83;21097;-87
2022/05/31 05:57:12;;;;;;;4.85;2.65;;;;;;;18.78;61.03;100285.51;2772577;85;21037;-88
2022/05/31 06:01:24;;;;;;;4.10;2.92;;;;;;;19.49;57.67;100286.61;2820659;84;20981;-85
2022/05/31 06:05:29;;;;;;;15.48;3.30;;;;;;;20.24;56.68;100289.78;2843774;82;21018;-88
2022/05/31 06:09:33;;;;;;;4.12;3.72;;;;;;;20.49;54.59;100290.28;2813429;83;21049;-87
2022/05/31 06:13:39;;;;;;;4.05;2.90;;;;;;;20.59;54.45;100291.32;2818341;83;21180;-87
2022/05/31 06:17:45;;;;;;;3.02;2.72;;;;;;;20.77;53.96;100293.59;2799447;84;21047;-88
2022/05/31 06:21:49;;;;;;;3.58;2.92;;;;;;;20.97;54.66;100291.09;2822934;83;21276;-86
2022/05/31 06:25:51;;;;;;;4.00;3.12;;;;;;;21.18;54.29;100289.92;2828617;83;21041;-87
2022/05/31 06:29:52;;;;;;;5.08;3.47;;;;;;;21.39;54.05;100301.20;2824565;83;21105;-88
2022/05/31 06:33:53;;;;;;;9.83;4.90;;;;;;;21.71;53.36;100300.80;2813914;82;21577;-88
2022/05/31 06:37:54;;;;;;;4.40;4.00;;;;;;;21.82;52.66;100301.11;2824334;83;21085;-84
2022/05/31 06:41:55;;;;;;;3.15;2.85;;;;;;;21.67;53.27;100304.45;2754366;85;21098;-88
2022/05/31 06:45:57;;;;;;;4.37;3.90;;;;;;;22.06;53.04;100308.41;2749739;84;21030;-87
2022/05/31 06:49:58;;;;;;;6.20;5.08;;;;;;;22.29;52.82;100304.53;2798767;85;21078;-88
2022/05/31 06:58:18;;;;;;;6.75;4.50;;;;;;;22.29;52.63;100307.75;2795227;83;21573;-88
2022/05/31 07:02:19;;;;;;;3.33;3.00;;;;;;;22.59;52.76;100302.86;2824520;83;21006;-89
2022/05/31 07:06:20;;;;;;;3.10;2.70;;;;;;;22.76;51.33;100290.28;2841938;82;21030;-88
2022/05/31 07:10:23;;;;;;;4.30;3.52;;;;;;;22.97;50.83;100288.73;2824563;83;21042;-88
2022/05/31 07:14:24;;;;;;;3.60;3.30;;;;;;;22.94;51.39;100295.94;2845887;82;20994;-88
2022/05/31 07:18:25;;;;;;;3.58;3.25;;;;;;;22.88;50.38;100292.70;2863573;81;21033;-86
2022/05/31 07:22:26;;;;;;;2.80;2.58;;;;;;;22.74;52.59;100287.80;2833120;82;21134;-87
2022/05/31 07:26:27;;;;;;;4.40;3.47;;;;;;;22.29;52.30;100282.86;2843005;82;21061;-88
2022/05/31 07:30:28;;;;;;;3.85;2.77;;;;;;;;;;2800482;82;21033;-88
2022/05/31 07:34:29;;;;;;;4.75;3.25;;;;;;;22.13;53.26;100288.63;2845908;82;21131;-87
2022/05/31 07:38:31;;;;;;;4.17;2.98;;;;;;;22.59;51.61;100282.53;2846106;82;20990;-88
2022/05/31 07:42:33;;;;;;;3.40;3.12;;;;;;;23.15;51.70;100272.89;2846711;82;21050;-88
2022/05/31 07:46:34;;;;;;;3.75;2.50;;;;;;;23.65;49.76;100267.81;2846138;82;21025;-89
2022/05/31 07:50:36;;;;;;;84.92;14.07;;;;;;;24.02;48.33;100259.17;2856805;81;21071;-88
2022/05/31 07:54:38;;;;;;;3.90;2.17;;;;;;;23.99;48.54;100254.14;2872816;80;21020;-88
2022/05/31 07:58:42;;;;;;;2.27;1.95;;;;;;;24.05;48.32;100253.30;2792226;84;21045;-88
2022/05/31 08:02:43;;;;;;;3.12;2.83;;;;;;;23.88;47.33;100247.50;2846148;83;20998;-88
2022/05/31 08:06:44;;;;;;;2.42;2.22;;;;;;;23.24;48.38;100253.48;2846360;82;21073;-88
2022/05/31 08:10:46;;;;;;;3.17;2.72;;;;;;;23.19;48.03;100254.64;2788641;82;30617;-89
2022/05/31 08:14:47;;;;;;;2.33;1.90;;;;;;;23.09;46.88;100255.57;2846799;82;21073;-88
2022/05/31 08:18:50;;;;;;;2.80;2.60;;;;;;;22.89;47.56;100248.27;2846043;82;21070;-88
2022/05/31 08:22:51;;;;;;;3.02;1.82;;;;;;;22.75;49.06;100249.30;2846121;82;21617;-88
2022/05/31 08:26:54;;;;;;;4.30;2.30;;;;;;;22.68;47.62;100246.58;2846074;82;21089;-89
2022/05/31 08:31:00;;;;;;;2.22;1.75;;;;;;;22.71;46.95;100242.62;2846713;82;21018;-89
2022/05/31 08:35:03;;;;;;;2.70;2.35;;;;;;;22.99;47.95;100237.52;2846078;82;21002;-88
2022/05/31 08:39:04;;;;;;;2.77;2.37;;;;;;;23.12;46.50;100230.73;2846076;82;21053;-88
2022/05/31 08:43:07;;;;;;;3.37;1.45;;;;;;;23.01;47.21;100227.31;2849242;82;21545;-88
2022/05/31 08:47:16;;;;;;;2.35;1.37;;;;;;;23.07;46.68;100227.82;2851939;82;21049;-87
2022/05/31 09:00:40;;;;;;;2.27;1.92;;;;;;;22.78;47.29;100211.77;2822118;82;21045;-87
2022/05/31 09:04:45;;;;;;;11.50;3.00;;;;;;;22.98;47.70;100210.93;2845921;82;21021;-87
2022/05/31 09:09:07;;;;;;;2.02;1.82;;;;;;;22.77;48.64;100212.81;2846964;82;21041;-89
2022/05/31 09:13:29;;;;;;;2.22;2.02;;;;;;;22.62;47.78;100211.67;2845744;82;21061;-89
2022/05/31 09:17:47;;;;;;;2.92;2.10;;;;;;;22.76;48.97;100211.66;2846443;82;21104;-86
2022/05/31 09:21:50;;;;;;;2.20;1.45;;;;;;;22.43;48.63;100209.20;2815827;83;21577;-88
2022/05/31 09:26:15;;;;;;;5.85;1.92;;;;;;;22.57;47.62;100206.02;2823833;82;21096;-89
2022/05/31 09:30:31;;;;;;;1.93;1.67;;;;;;;22.61;48.71;100198.31;2847087;82;21081;-88
2022/05/31 09:35:07;;;;;;;4.72;2.25;;;;;;;22.52;47.74;100190.40;2820841;83;21544;-88
2022/05/31 09:39:48;;;;;;;2.70;2.20;;;;;;;22.45;47.78;100181.91;2823653;83;21161;-88
2022/05/31 09:44:04;;;;;;;2.02;1.82;;;;;;;22.35;47.32;100179.61;2845515;82;21035;-87
2022/05/31 09:48:06;;;;;;;2.25;1.62;;;;;;;22.25;48.33;100174.59;2769108;84;21125;-87
2022/05/31 09:52:30;;;;;;;2.75;1.75;;;;;;;22.24;46.73;100165.61;2755123;84;21062;-89
2022/05/31 10:01:14;;;;;;;2.17;1.98;;;;;;;22.59;48.27;100159.74;2755094;84;21039;-89
2022/05/31 10:05:23;;;;;;;2.22;1.57;;;;;;;22.71;47.49;100162.15;2749294;84;21074;-86
2022/05/31 10:09:40;;;;;;;2.12;1.80;;;;;;;22.83;47.37;100148.79;2759984;84;21094;-89
2022/05/31 10:13:58;;;;;;;3.25;1.60;;;;;;;22.83;47.54;100157.74;2755706;84;21041;-88
2022/05/31 10:18:04;;;;;;;2.15;1.60;;;;;;;22.77;46.78;100154.52;2737901;84;21078;-88
2022/05/31 10:22:20;;;;;;;4.10;1.27;;;;;;;22.79;46.98;100142.09;2754979;84;21801;-88
2022/05/31 10:26:26;;;;;;;3.77;2.25;;;;;;;22.72;47.75;100127.72;2811767;83;21033;-88
2022/05/31 10:30:28;;;;;;;1.70;1.37;;;;;;;22.81;46.57;100136.78;2846045;82;21023;-88
2022/05/31 10:34:38;;;;;;;1.22;0.98;;;;;;;22.97;47.03;100134.14;2824901;82;20983;-88
2022/05/31 10:38:43;;;;;;;1.87;1.37;;;;;;;23.10;47.26;100129.74;2794499;83;21535;-89
2022/05/31 10:42:48;;;;;;;2.50;1.20;;;;;;;23.17;46.06;100133.26;2842072;82;21026;-89
2022/05/31 10:46:55;;;;;;;4.45;1.32;;;;;;;23.20;46.03;100134.22;2845948;82;21034;-87
2022/05/31 10:51:16;;;;;;;4.28;0.98;;;;;;;23.44;45.93;100123.72;2846263;82;21435;-89
2022/05/31 10:55:38;;;;;;;2.35;1.60;;;;;;;23.46;47.27;100122.13;2825237;82;21074;-88
2022/05/31 10:59:56;;;;;;;4.83;1.20;;;;;;;23.57;47.61;100119.27;2844794;82;21118;-87
2022/05/31 11:04:19;;;;;;;3.80;1.67;;;;;;;23.49;45.55;100108.97;2824746;84;21065;-88
2022/05/31 11:13:14;;;;;;;2.37;1.00;;;;;;;23.62;47.14;100097.75;2792291;84;21046;-88
2022/05/31 11:17:42;;;;;;;2.27;1.17;;;;;;;23.70;45.40;100093.95;2846268;82;21031;-88
2022/05/31 11:22:16;;;;;;;7.65;1.92;;;;;;;23.65;44.44;100096.77;2822975;84;21042;-89
2022/05/31 11:26:40;;;;;;;1.50;1.07;;;;;;;23.47;43.93;100090.72;2842335;82;21016;-88
2022/05/31 11:31:11;;;;;;;1.10;0.80;;;;;;;23.53;44.21;100080.34;2793185;84;21062;-88
2022/05/31 11:35:30;;;;;;;1.25;1.12;;;;;;;23.60;45.23;100070.80;2843816;82;21105;-88
2022/05/31 11:39:54;;;;;;;1.15;1.05;;;;;;;23.68;44.07;100061.58;2818174;83;21284;-84
2022/05/31 11:44:52;;;;;;;2.30;1.65;;;;;;;23.78;45.97;100063.81;2813457;83;21050;-88
2022/05/31 11:49:03;;;;;;;1.55;1.45;;;;;;;23.73;46.18;100059.03;2817609;83;21030;-87
2022/05/31 11:53:31;;;;;;;6.42;1.25;;;;;;;23.89;44.06;100026.97;2739903;85;21066;-88
2022/05/31 11:57:46;;;;;;;3.40;1.25;;;;;;;23.99;43.71;100047.70;2687188;86;21065;-88
2022/05/31 12:01:59;;;;;;;;;;;;;;;23.89;43.89;100046.83;2759739;84;21077;-88
2022/05/31 12:06:11;;;;;;;3.10;1.27;;;;;;;24.02;43.64;100032.34;2711830;86;20158;-89
2022/05/31 12:10:33;;;;;;;1.42;1.20;;;;;;;24.01;44.51;100030.65;2670790;87;21079;-88
2022/05/31 12:14:48;;;;;;;1.42;1.22;;;;;;;24.23;46.23;100035.72;2640905;88;21094;-88
2022/05/31 12:19:03;;;;;;;1.57;1.17;;;;;;;24.50;45.20;100030.02;2660019;87;21036;-88
2022/05/31 12:23:37;;;;;;;1.60;1.50;;;;;;;24.77;45.55;100018.37;2642231;88;21083;-89
2022/05/31 12:27:56;;;;;;;1.02;1.00;;;;;;;24.89;43.97;100011.63;2618877;89;21075;-88
2022/05/31 12:32:29;;;;;;;2.02;1.57;;;;;;;25.17;44.90;100006.17;2602241;90;21242;-89
2022/05/31 12:36:47;;;;;;;6.60;1.52;;;;;;;25.27;43.10;100003.42;2607628;89;21197;-88
2022/05/31 12:40:53;;;;;;;2.30;1.12;;;;;;;25.33;44.70;99995.17;2638852;88;21137;-89
2022/05/31 12:45:06;;;;;;;;;;;;;;;25.43;43.51;99984.23;2662876;88;21109;-88
2022/05/31 12:49:12;;;;;;;0.78;0.78;;;;;;;25.56;43.75;99983.27;2578678;91;20123;-88
2022/05/31 12:53:20;;;;;;;1.60;1.15;;;;;;;25.78;45.90;99974.84;2543389;92;21098;-88
2022/05/31 12:57:27;;;;;;;1.80;1.12;;;;;;;25.68;44.33;99979.20;2543329;92;21062;-88
2022/05/31 13:01:33;;;;;;;1.52;1.07;;;;;;;25.59;43.51;99982.80;2545178;90;21074;-87
2022/05/31 13:06:02;;;;;;;5.55;1.52;;;;;;;25.48;44.21;99979.80;2578854;90;21052;-87
2022/05/31 13:10:34;;;;;;;1.72;0.72;;;;;;;25.47;42.61;99971.33;2577312;90;21103;-89
2022/05/31 13:23:20;;;;;;;6.78;1.50;;;;;;;25.09;45.54;99967.02;2690439;84;21088;-91
2022/05/31 13:27:25;;;;;;;;;;;;;;;25.38;44.97;99961.27;2811002;82;21054;-88
2022/05/31 13:31:29;;;;;;;1.47;1.35;;;;;;;25.76;45.90;99953.81;2807348;82;20224;-84
2022/05/31 13:35:32;;;;;;;2.60;1.62;;;;;;;26.05;44.63;99960.75;2791577;82;21050;-93
2022/05/31 13:39:41;;;;;;;1.55;0.82;;;;;;;25.93;44.49;99959.91;2844789;82;21039;-90
2022/05/31 13:43:56;;;;;;;1.65;1.00;;;;;;;25.79;45.77;99969.69;2843309;82;21053;-91
2022/05/31 13:48:03;;;;;;;1.85;1.17;;;;;;;25.64;44.78;99955.69;2838112;82;21078;-90
2022/05/31 13:52:24;;;;;;;10.72;3.27;;;;;;;25.38;44.79;99955.83;2802910;84;21034;-90
2022/05/31 13:56:25;;;;;;;10.13;2.52;;;;;;;25.23;45.50;99942.65;2836720;83;21011;-90
2022/05/31 14:00:47;;;;;;;2.08;1.42;;;;;;;24.89;45.42;99938.19;2813017;83;21133;-90
2022/05/31 14:04:58;;;;;;;3.27;1.30;;;;;;;24.52;46.08;99946.34;2805593;83;21058;-89
2022/05/31 14:08:58;;;;;;;2.37;1.45;;;;;;;24.22;47.06;99947.92;2820441;84;21106;-91
2022/05/31 14:13:06;;;;;;;2.12;1.52;;;;;;;24.04;47.56;99946.02;2862525;82;20991;-90
2022/05/31 14:17:07;;;;;;;3.15;1.32;;;;;;;23.89;48.05;99942.77;2831399;80;20994;-86
2022/05/31 14:21:09;;;;;;;3.20;2.30;;;;;;;23.59;47.55;99940.20;2844206;82;20962;-90
2022/05/31 14:25:10;;;;;;;1.60;1.45;;;;;;;23.52;48.16;99933.45;2785411;84;21023;-88
2022/05/31 14:29:25;;;;;;;2.37;1.60;;;;;;;23.51;49.25;99926.37;2847928;83;21017;-90
2022/05/31 14:33:31;;;;;;;3.22;1.32;;;;;;;23.54;48.83;99928.64;2846940;82;21925;-89
2022/05/31 14:37:42;;;;;;;9.33;1.87;;;;;;;23.86;49.25;99924.22;2806305;83;21324;-88
2022/05/31 14:41:44;;;;;;;9.83;2.05;;;;;;;24.16;48.24;99906.72;2798324;84;21042;-90
2022/05/31 14:45:49;;;;;;;1.57;1.12;;;;;;;24.21;48.11;99906.05;2778333;83;21030;-88
2022/05/31 14:50:09;;;;;;;6.45;2.00;;;;;;;24.51;47.49;99894.40;2806845;84;21030;-88
2022/05/31 14:54:36;;;;;;;8.15;2.58;;;;;;;24.50;46.59;99890.02;2845761;82;21035;-87
2022/05/31 14:58:38;;;;;;;2.72;1.65;;;;;;;24.37;48.04;99887.78;2808528;82;21060;-85
2022/05/31 15:02:39;;;;;;;1.55;1.45;;;;;;;24.16;48.50;99888.20;2837891;82;21005;-87
2022/05/31 15:06:43;;;;;;;3.10;1.57;;;;;;;23.88;50.29;99889.52;2784527;82;21034;-86
2022/05/31 15:10:54;;;;;;;3.20;1.15;;;;;;;23.62;49.80;99888.72;2825733;82;21082;-87
2022/05/31 15:19:16;;;;;;;4.72;2.15;;;;;;;23.62;49.81;99882.74;2823730;82;21049;-87
2022/05/31 15:23:21;;;;;;;2.92;1.30;;;;;;;23.68;49.81;99875.09;2820580;83;20999;-87
2022/05/31 15:27:34;;;;;;;1.95;1.42;;;;;;;23.67;48.60;99881.54;2801252;83;21042;-87
2022/05/31 15:31:39;;;;;;;8.48;1.85;;;;;;;23.72;49.07;99878.16;2845752;82;21055;-87
2022/05/31 15:35:40;;;;;;;3.70;1.47;;;;;;;23.83;48.89;99876.60;2822032;83;21507;-87
2022/05/31 15:39:41;;;;;;;3.12;1.55;;;;;;;23.88;49.10;99878.66;2848977;82;21023;-87
2022/05/31 15:43:52;;;;;;;7.95;2.27;;;;;;;23.88;48.63;99873.22;2821757;84;21037;-87
2022/05/31 15:47:53;;;;;;;1.60;1.50;;;;;;;23.86;49.27;99871.26;2853245;82;21030;-87
2022/05/31 15:51:55;;;;;;;13.13;3.40;;;;;;;23.92;49.56;99862.20;2799004;84;21034;-87
2022/05/31 15:55:58;;;;;;;2.83;1.45;;;;;;;23.80;49.62;99864.32;2825480;83;20999;-88
2022/05/31 16:00:00;;;;;;;92.45;17.42;;;;;;;23.84;49.12;99866.58;2769075;83;21038;-85
2022/05/31 16:04:01;;;;;;;3.22;1.98;;;;;;;23.97;49.06;99858.28;2808078;83;21034;-86
2022/05/31 16:08:05;;;;;;;2.30;2.02;;;;;;;23.95;48.58;99853.60;2779127;82;21018;-86
2022/05/31 16:12:09;;;;;;;2.17;1.40;;;;;;;23.95;47.79;99856.32;2846566;82;21025;-86
2022/05/31 16:16:10;;;;;;;2.50;1.98;;;;;;;23.93;48.62;99852.48;2817196;83;21022;-87
2022/05/31 16:20:12;;;;;;;12.07;3.33;;;;;;;23.86;48.88;99846.82;2842504;83;21076;-85
2022/05/31 16:24:19;;;;;;;4.47;1.90;;;;;;;23.81;48.98;99845.61;2850256;82;21092;-87
2022/05/31 16:28:21;;;;;;;6.22;2.40;;;;;;;23.59;48.99;99849.26;2821504;83;21042;-86
2022/05/31 16:32:22;;;;;;;19.60;8.03;;;;;;;23.50;49.67;99850.61;2843169;83;21006;-87
2022/05/31 16:36:28;;;;;;;5.20;2.42;;;;;;;23.36;49.79;99849.86;2791913;84;21042;-88
2022/05/31 16:44:52;;;;;;;2.17;1.02;;;;;;;23.07;50.63;99850.25;2804081;83;21041;-85
2022/05/31 16:48:54;;;;;;;1.95;1.70;;;;;;;22.81;49.58;99846.67;2802408;84;21053;-86
2022/05/31 16:52:55;;;;;;;2.15;1.62;;;;;;;22.63;49.94;99846.05;2847097;82;20980;-88
2022/05/31 16:57:09;;;;;;;46.70;9.55;;;;;;;22.41;51.06;99842.78;2794855;82;21063;-88
2022/05/31 17:01:10;;;;;;;6.50;4.62;;;;;;;22.17;52.42;99844.31;2790759;84;21436;-87
2022/05/31 17:05:12;;;;;;;4.50;1.72;;;;;;;21.99;53.67;99840.41;2813155;83;21033;-86
2022/05/31 17:17:55;;;;;;;3.10;2.60;;;;;;;21.66;54.21;99829.95;2847026;82;21003;-88
2022/05/31 17:21:57;;;;;;;5.92;3.17;;;;;;;21.67;54.59;99818.63;2817899;83;21078;-87
2022/05/31 17:26:07;;;;;;;2.30;2.10;;;;;;;21.66;54.60;99816.96;2828605;82;20958;-88
2022/05/31 17:30:10;;;;;;;2.20;1.90;;;;;;;21.63;54.27;99824.13;2846030;82;21015;-87
2022/05/31 17:34:11;;;;;;;6.67;2.37;;;;;;;21.60;54.54;99827.22;2820575;82;21097;-87
2022/05/31 17:38:21;;;;;;;4.28;1.90;;;;;;;21.56;54.70;99821.42;2846683;82;21629;-87
2022/05/31 17:42:23;;;;;;;3.62;1.95;;;;;;;21.52;55.19;99815.59;2846265;82;21062;-87
2022/05/31 17:46:27;;;;;;;3.17;2.05;;;;;;;21.45;56.12;99817.48;2846681;82;21068;-87
2022/05/31 17:50:28;;;;;;;2.65;2.10;;;;;;;21.40;56.41;99828.07;2846985;82;21042;-87
2022/05/31 17:54:32;;;;;;;3.40;2.85;;;;;;;21.35;56.78;99828.72;2820567;82;21070;-87
2022/05/31 17:58:35;;;;;;;3.37;3.08;;;;;;;21.26;59.08;99839.41;2841493;82;21023;-86
2022/05/31 18:02:37;;;;;;;2.37;2.15;;;;;;;20.86;58.19;99843.42;2848919;82;21015;-86
2022/05/31 18:06:39;;;;;;;5.08;3.08;;;;;;;20.46;58.76;99844.11;2848364;82;21065;-86
2022/05/31 18:10:40;;;;;;;4.37;3.42;;;;;;;19.92;60.63;99857.33;2823148;83;21047;-86
2022/05/31 18:14:42;;;;;;;3.25;2.67;;;;;;;19.45;61.64;99863.70;2847499;83;21035;-86
2022/05/31 18:18:43;;;;;;;5.58;3.70;;;;;;;19.10;62.86;99867.95;2848531;82;20982;-89
2022/05/31 18:22:49;;;;;;;2.65;2.40;;;;;;;18.78;64.14;99869.23;2798740;83;21058;-88
2022/05/31 18:26:55;;;;;;;4.45;2.20;;;;;;;18.49;65.20;99869.64;2846056;82;21027;-88
2022/05/31 18:30:57;;;;;;;;;;;;;;;18.26;65.72;99870.56;2814718;82;21555;-89
2022/05/31 18:35:02;;;;;;;2.45;2.25;;;;;;;18.05;66.35;99864.07;2801897;81;20472;-88
2022/05/31 18:39:10;;;;;;;3.67;3.25;;;;;;;17.87;67.34;99852.31;2833318;82;21018;-89
2022/05/31 18:43:17;;;;;;;3.02;2.35;;;;;;;17.67;67.42;99850.15;2818059;83;21327;-85
2022/05/31 18:47:19;;;;;;;4.97;4.03;;;;;;;17.53;67.91;99838.36;2812814;83;21030;-88
2022/05/31 18:51:22;;;;;;;2.90;2.60;;;;;;;17.45;67.94;99828.19;2786692;84;21358;-88
2022/05/31 18:55:23;;;;;;;6.45;3.27;;;;;;;17.36;67.99;99822.86;2778017;83;21102;-89
2022/05/31 18:59:24;;;;;;;3.98;3.20;;;;;;;17.34;68.35;99820.05;2787824;84;20967;-87
2022/05/31 19:03:28;;;;;;;3.02;2.45;;;;;;;17.32;68.53;99818.06;2805188;83;21125;-87
2022/05/31 19:07:29;;;;;;;2.60;2.40;;;;;;;17.28;68.65;99825.11;2813749;82;21723;-86
2022/05/31 19:11:30;;;;;;;3.00;2.80;;;;;;;17.23;68.34;99819.45;2844128;82;21003;-88
2022/05/31 19:15:31;;;;;;;3.62;2.83;;;;;;;17.22;68.29;99833.09;2813448;82;21069;-89
2022/05/31 19:19:33;;;;;;;5.83;3.40;;;;;;;17.28;67.82;99837.73;2844001;82;21043;-90
2022/05/31 19:23:34;;;;;;;4.33;2.90;;;;;;;17.31;68.01;99847.30;2795384;83;21050;-88
2022/05/31 19:27:36;;;;;;;3.05;2.65;;;;;;;17.30;68.27;99850.48;2847192;82;21044;-88
2022/05/31 19:31:40;;;;;;;3.87;3.25;;;;;;;17.28;68.50;99847.96;2809877;83;21055;-88
2022/05/31 19:35:45;;;;;;;4.30;3.62;;;;;;;17.26;68.74;99843.80;2846161;82;21061;-87
2022/05/31 19:39:48;;;;;;;3.80;3.12;;;;;;;17.20;69.23;99849.91;2802821;83;21030;-87
2022/05/31 19:43:50;;;;;;;3.50;2.55;;;;;;;17.18;69.36;99851.42;2800371;83;21065;-88
2022/05/31 19:47:51;;;;;;;5.92;2.98;;;;;;;17.15;69.60;99851.78;2827950;83;21018;-87
2022/05/31 19:51:53;;;;;;;3.20;2.90;;;;;;;17.13;69.66;99849.78;2793253;83;21589;-87
2022/05/31 19:55:56;;;;;;;3.90;3.08;;;;;;;17.11;69.82;99859.88;2794507;83;21072;-87
2022/05/31 19:59:58;;;;;;;5.70;3.37;;;;;;;17.10;69.65;99870.30;2806094;84;21581;-87
2022/05/31 20:04:00;;;;;;;5.87;4.00;;;;;;;17.05;69.80;99874.86;2818362;84;21067;-88
2022/05/31 20:08:01;;;;;;;4.42;3.65;;;;;;;16.85;70.78;99869.06;2812538;84;21045;-88
2022/05/31 20:12:03;;;;;;;3.02;2.70;;;;;;;16.79;70.85;99869.27;2810966;83;21081;-88
2022/05/31 20:16:05;;;;;;;5.65;3.87;;;;;;;16.80;71.06;99854.84;2799719;84;21046;-87